createdAt,value
2023-03-17T00:02:27.167Z,21.00
2023-03-17T00:05:35.551Z,20.90
2023-03-17T00:08:37.869Z,20.90
2023-03-17T00:11:39.935Z,20.90
2023-03-17T00:14:42.444Z,21.00
2023-03-17T00:17:45.753Z,21.10
2023-03-17T00:20:48.544Z,21.00
2023-03-17T00:23:54.858Z,21.00
2023-03-17T00:26:58.055Z,21.00
2023-03-17T00:30:00.029Z,21.00
2023-03-17T00:33:05.082Z,21.00
2023-03-17T00:36:30.854Z,21.20
2023-03-17T00:39:33.093Z,21.10
2023-03-17T00:42:35.247Z,21.00
2023-03-17T00:45:37.751Z,21.10
2023-03-17T00:48:40.041Z,21.10
2023-03-17T00:51:42.550Z,21.10
2023-03-17T00:54:44.523Z,21.20
2023-03-17T00:57:48.576Z,21.20
2023-03-17T01:00:52.176Z,21.20
2023-03-17T01:03:54.491Z,21.20
2023-03-17T01:06:58.595Z,21.30
2023-03-17T01:10:01.224Z,21.20
2023-03-17T01:13:05.314Z,21.30
2023-03-17T01:16:10.952Z,21.20
2023-03-17T01:19:13.315Z,21.40
2023-03-17T01:22:15.680Z,21.40
2023-03-17T01:25:19.024Z,21.30
2023-03-17T01:28:21.446Z,21.30
2023-03-17T01:31:24.384Z,21.30
2023-03-17T01:34:27.161Z,21.30
2023-03-17T01:37:29.150Z,21.20
2023-03-17T01:40:34.326Z,21.20
2023-03-17T01:43:36.606Z,21.20
2023-03-17T01:46:39.075Z,21.40
2023-03-17T01:49:44.438Z,21.90
2023-03-17T01:52:48.061Z,21.30
2023-03-17T01:55:51.569Z,21.20
2023-03-17T01:58:55.292Z,21.20
2023-03-17T02:02:06.036Z,21.10
2023-03-17T02:05:11.566Z,21.20
2023-03-17T02:08:15.368Z,21.20
2023-03-17T02:11:18.312Z,21.20
2023-03-17T02:14:20.490Z,21.80
2023-03-17T02:17:24.999Z,21.40
2023-03-17T02:20:27.197Z,21.40
2023-03-17T02:23:29.584Z,21.30
2023-03-17T02:26:34.416Z,21.20
2023-03-17T02:29:37.838Z,21.20
2023-03-17T02:32:40.075Z,21.30
2023-03-17T02:35:42.568Z,21.20
2023-03-17T02:38:44.613Z,21.10
2023-03-17T02:41:47.068Z,21.10
2023-03-17T02:44:49.556Z,21.00
2023-03-17T02:47:52.534Z,21.20
2023-03-17T02:50:54.584Z,21.20
2023-03-17T02:53:56.814Z,21.10
2023-03-17T02:56:59.329Z,21.20
2023-03-17T03:00:01.822Z,21.30
2023-03-17T03:03:03.886Z,21.10
2023-03-17T03:06:06.862Z,21.20
2023-03-17T03:09:11.730Z,21.10
2023-03-17T03:12:14.025Z,21.20
2023-03-17T03:15:16.267Z,21.20
2023-03-17T03:18:18.593Z,21.20
2023-03-17T03:21:22.075Z,21.30
2023-03-17T03:24:24.422Z,21.10
2023-03-17T03:27:26.661Z,21.10
2023-03-17T03:30:29.198Z,21.20
2023-03-17T03:33:31.775Z,21.20
2023-03-17T03:36:34.097Z,21.20
2023-03-17T03:39:36.208Z,21.30
2023-03-17T03:42:38.435Z,21.10
2023-03-17T03:45:41.509Z,21.10
2023-03-17T03:48:43.811Z,21.00
2023-03-17T03:51:45.863Z,21.10
2023-03-17T03:54:48.176Z,21.40
2023-03-17T03:57:50.328Z,21.40
2023-03-17T04:00:52.600Z,21.60
2023-03-17T04:03:54.592Z,21.40
2023-03-17T04:06:56.829Z,21.30
2023-03-17T04:09:59.871Z,21.20
2023-03-17T04:13:02.215Z,21.10
2023-03-17T04:16:04.822Z,21.00
2023-03-17T04:19:07.518Z,20.90
2023-03-17T04:22:11.899Z,21.00
2023-03-17T04:25:15.418Z,20.90
2023-03-17T04:28:17.674Z,21.00
2023-03-17T04:31:20.085Z,21.00
2023-03-17T04:34:23.038Z,20.90
2023-03-17T04:37:25.786Z,21.00
2023-03-17T04:40:27.785Z,20.80
2023-03-17T04:43:30.349Z,20.90
2023-03-17T04:46:33.134Z,20.80
2023-03-17T04:49:37.555Z,20.70
2023-03-17T04:52:39.605Z,20.80
2023-03-17T04:55:42.152Z,20.70
2023-03-17T04:58:44.326Z,20.70
2023-03-17T05:01:47.189Z,20.70
2023-03-17T05:04:49.216Z,20.50
2023-03-17T05:07:51.509Z,20.50
2023-03-17T05:10:53.707Z,20.30
2023-03-17T05:13:57.081Z,20.40
2023-03-17T05:16:59.096Z,20.30
2023-03-17T05:20:01.375Z,20.30
2023-03-17T05:23:03.446Z,20.20
2023-03-17T05:26:06.475Z,20.40
2023-03-17T05:29:09.082Z,20.30
2023-03-17T05:32:11.712Z,20.40
2023-03-17T05:35:13.859Z,20.60
2023-03-17T05:38:16.451Z,20.50
2023-03-17T05:41:18.527Z,20.40
2023-03-17T05:44:20.874Z,20.20
2023-03-17T05:47:23.157Z,20.20
2023-03-17T05:50:26.194Z,20.00
2023-03-17T05:53:28.632Z,20.10
2023-03-17T05:56:33.790Z,20.00
2023-03-17T05:59:36.243Z,19.90
2023-03-17T06:02:39.682Z,20.00
2023-03-17T06:05:41.959Z,20.00
2023-03-17T06:08:44.643Z,19.90
2023-03-17T06:11:46.780Z,19.70
2023-03-17T06:14:50.332Z,20.00
2023-03-17T06:17:52.904Z,19.80
2023-03-17T06:20:55.203Z,20.10
2023-03-17T06:23:57.357Z,20.00
2023-03-17T06:26:59.910Z,19.90
2023-03-17T06:30:01.927Z,19.80
2023-03-17T06:33:04.540Z,19.90
2023-03-17T06:36:08.176Z,19.80
2023-03-17T06:39:10.975Z,19.80
2023-03-17T06:42:13.262Z,19.90
2023-03-17T06:45:16.348Z,19.90
2023-03-17T06:48:18.807Z,19.80
2023-03-17T06:51:21.242Z,19.50
2023-03-17T06:54:25.373Z,19.50
2023-03-17T06:57:27.793Z,19.70
2023-03-17T07:00:30.402Z,19.30
2023-03-17T07:03:32.805Z,19.40
2023-03-17T07:06:35.312Z,19.90
2023-03-17T07:09:37.719Z,19.40
2023-03-17T07:12:39.720Z,19.30
2023-03-17T07:15:42.709Z,19.20
2023-03-17T07:18:45.043Z,19.20
2023-03-17T07:21:47.406Z,19.20
2023-03-17T07:24:49.457Z,19.10
2023-03-17T07:27:52.008Z,19.00
2023-03-17T07:30:54.560Z,18.70
2023-03-17T07:33:57.560Z,18.70
2023-03-17T07:36:59.722Z,19.00
2023-03-17T07:40:02.330Z,19.10
2023-03-17T07:43:04.804Z,19.00
2023-03-17T07:46:07.508Z,18.80
2023-03-17T07:49:10.481Z,18.50
2023-03-17T07:52:13.032Z,18.50
2023-03-17T07:55:15.854Z,18.30
2023-03-17T07:58:18.166Z,18.60
2023-03-17T08:01:22.891Z,18.50
2023-03-17T08:04:28.471Z,19.00
2023-03-17T08:07:31.659Z,18.70
2023-03-17T08:10:35.183Z,18.50
2023-03-17T08:13:37.741Z,18.50
2023-03-17T08:16:40.101Z,18.70
2023-03-17T08:19:42.487Z,18.60
2023-03-17T08:22:44.808Z,19.10
2023-03-17T08:25:47.643Z,18.80
2023-03-17T08:28:50.348Z,18.80
2023-03-17T08:31:52.839Z,18.90
2023-03-17T08:34:55.243Z,19.00
2023-03-17T08:37:57.371Z,19.00
2023-03-17T08:41:08.097Z,18.80
2023-03-17T08:44:10.609Z,18.60
2023-03-17T08:47:12.891Z,19.00
2023-03-17T08:50:21.956Z,18.70
2023-03-17T08:53:25.137Z,18.40
2023-03-17T08:56:27.760Z,18.60
2023-03-17T08:59:30.159Z,18.40
2023-03-17T09:02:32.181Z,18.30
2023-03-17T09:05:36.949Z,18.00
2023-03-17T09:08:44.943Z,18.00
2023-03-17T09:11:47.455Z,18.40
2023-03-17T09:14:50.504Z,18.30
2023-03-17T09:17:52.747Z,18.00
2023-03-17T09:20:54.946Z,18.70
2023-03-17T09:23:57.225Z,18.00
2023-03-17T09:27:01.353Z,17.70
2023-03-17T09:30:05.437Z,17.70
2023-03-17T09:33:07.620Z,17.70
2023-03-17T09:36:16.318Z,17.50
2023-03-17T09:39:25.056Z,17.50
2023-03-17T09:42:33.421Z,17.40
2023-03-17T09:45:38.976Z,17.20
2023-03-17T09:48:57.361Z,17.70
2023-03-17T09:52:00.154Z,17.50
2023-03-17T09:55:05.996Z,17.40
2023-03-17T09:58:14.825Z,17.30
2023-03-17T10:01:17.735Z,17.30
2023-03-17T10:04:20.056Z,17.30
2023-03-17T10:08:31.226Z,17.30
2023-03-17T10:11:43.775Z,17.10
2023-03-17T10:14:59.530Z,17.50
2023-03-17T10:18:09.473Z,17.90
2023-03-17T10:21:17.908Z,17.50
2023-03-17T10:24:23.113Z,18.00
2023-03-17T10:27:26.216Z,17.60
2023-03-17T10:30:33.592Z,18.00
2023-03-17T10:33:36.484Z,18.10
2023-03-17T10:36:40.732Z,18.70
2023-03-17T10:39:47.065Z,18.30
2023-03-17T10:43:01.611Z,18.40
2023-03-17T10:46:06.429Z,18.10
2023-03-17T10:49:16.748Z,18.30
2023-03-17T10:52:23.667Z,18.30
2023-03-17T10:55:29.802Z,18.20
2023-03-17T10:58:45.794Z,18.20
2023-03-17T11:01:54.061Z,17.90
2023-03-17T11:05:22.321Z,18.00
2023-03-17T11:08:24.947Z,18.60
2023-03-17T11:11:29.859Z,18.20
2023-03-17T11:14:32.450Z,17.90
2023-03-17T11:17:43.057Z,18.10
2023-03-17T11:20:57.104Z,18.20
2023-03-17T11:24:19.593Z,18.40
2023-03-17T11:27:35.230Z,19.00
2023-03-17T11:30:50.682Z,18.60
2023-03-17T11:34:25.579Z,19.10
2023-03-17T11:37:33.318Z,19.10
2023-03-17T11:40:38.696Z,19.10
2023-03-17T11:44:01.404Z,18.40
2023-03-17T11:47:09.126Z,18.60
2023-03-17T11:50:33.853Z,18.50
2023-03-17T11:53:50.775Z,18.50
2023-03-17T11:56:59.893Z,18.30
2023-03-17T12:00:42.766Z,18.40
2023-03-17T12:04:13.001Z,18.10
2023-03-17T12:07:23.571Z,17.70
2023-03-17T12:10:40.599Z,18.00
2023-03-17T12:14:11.260Z,17.90
2023-03-17T12:17:34.907Z,17.80
2023-03-17T12:28:34.350Z,17.70
2023-03-17T12:31:52.330Z,17.80
2023-03-17T12:35:02.622Z,17.70
2023-03-17T12:38:11.511Z,18.00
2023-03-17T12:41:44.806Z,18.20
2023-03-17T12:45:28.460Z,18.30
2023-03-17T12:48:49.129Z,18.30
2023-03-17T12:51:58.178Z,18.50
2023-03-17T12:55:03.341Z,18.20
2023-03-17T12:58:26.553Z,17.80
2023-03-17T13:01:35.591Z,17.50
2023-03-17T13:04:38.698Z,17.10
2023-03-17T13:07:47.467Z,16.80
2023-03-17T13:10:50.508Z,17.50
2023-03-17T13:14:05.906Z,16.90
2023-03-17T13:17:34.737Z,17.40
2023-03-17T13:20:41.140Z,17.60
2023-03-17T13:24:06.281Z,17.50
2023-03-17T13:27:14.517Z,17.70
2023-03-17T13:30:26.890Z,17.90
2023-03-17T13:33:32.924Z,17.30
2023-03-17T13:36:54.659Z,17.40
2023-03-17T13:40:18.324Z,17.50
2023-03-17T13:43:54.074Z,17.60
2023-03-17T13:47:15.916Z,17.60
2023-03-17T13:50:32.815Z,17.90
2023-03-17T13:53:55.442Z,17.80
2023-03-17T13:57:17.928Z,17.20
2023-03-17T14:00:28.445Z,16.70
2023-03-17T14:03:50.093Z,16.80
2023-03-17T14:06:56.743Z,16.70
2023-03-17T14:10:04.165Z,16.70
2023-03-17T14:13:22.669Z,16.60
2023-03-17T14:16:32.061Z,16.50
2023-03-17T14:19:34.770Z,16.70
2023-03-17T14:22:46.013Z,16.90
2023-03-17T14:25:50.445Z,17.00
2023-03-17T14:28:53.073Z,16.90
2023-03-17T14:32:13.668Z,17.10
2023-03-17T14:35:15.832Z,16.90
2023-03-17T14:38:19.971Z,17.20
2023-03-17T14:41:44.981Z,17.30
2023-03-17T14:45:19.216Z,17.10
2023-03-17T14:48:28.876Z,16.90
2023-03-17T14:51:36.266Z,17.20
2023-03-17T14:54:38.453Z,17.40
2023-03-17T14:57:41.389Z,17.90
2023-03-17T15:00:52.573Z,17.50
2023-03-17T15:03:56.612Z,17.30
2023-03-17T15:07:01.611Z,17.30
2023-03-17T15:10:05.807Z,17.30
2023-03-17T15:13:11.883Z,17.20
2023-03-17T15:16:43.581Z,17.20
2023-03-17T15:19:52.617Z,17.20
2023-03-17T15:23:02.982Z,17.30
2023-03-17T15:26:09.910Z,17.40
2023-03-17T15:29:12.187Z,17.60
2023-03-17T15:32:17.302Z,17.70
2023-03-17T15:35:19.826Z,17.40
2023-03-17T15:38:22.209Z,17.30
2023-03-17T15:41:24.534Z,17.90
2023-03-17T15:44:27.065Z,17.70
2023-03-17T15:47:32.864Z,17.70
2023-03-17T15:50:35.272Z,17.40
2023-03-17T15:53:37.932Z,17.60
2023-03-17T15:56:39.995Z,17.50
2023-03-17T15:59:42.262Z,17.60
2023-03-17T16:02:44.745Z,17.20
2023-03-17T16:05:47.137Z,17.40
2023-03-17T16:08:50.297Z,17.40
2023-03-17T16:11:52.782Z,17.20
2023-03-17T16:14:54.807Z,17.10
2023-03-17T16:18:00.531Z,17.20
2023-03-17T16:21:04.242Z,17.40
2023-03-17T16:24:06.800Z,16.90
2023-03-17T16:27:21.701Z,17.00
2023-03-17T16:30:31.348Z,17.00
2023-03-17T16:33:40.360Z,17.40
2023-03-17T16:36:43.948Z,17.10
2023-03-17T16:39:46.038Z,17.00
2023-03-17T16:42:48.752Z,17.20
2023-03-17T16:45:52.675Z,17.40
2023-03-17T16:48:56.125Z,17.40
2023-03-17T16:51:58.216Z,17.60
2023-03-17T16:55:06.723Z,17.70
2023-03-17T16:58:16.527Z,17.70
2023-03-17T17:01:24.885Z,17.70
2023-03-17T17:04:27.517Z,17.70
2023-03-17T17:07:29.886Z,18.00
2023-03-17T17:10:34.151Z,17.90
2023-03-17T17:13:37.396Z,18.10
2023-03-17T17:16:40.926Z,18.30
2023-03-17T17:19:44.115Z,18.30
2023-03-17T17:22:46.156Z,18.30
2023-03-17T17:25:49.917Z,18.30
2023-03-17T17:28:52.082Z,18.40
2023-03-17T17:31:54.728Z,18.50
2023-03-17T17:34:56.880Z,18.70
2023-03-17T17:37:59.761Z,18.70
2023-03-17T17:41:06.940Z,18.70
2023-03-17T17:44:09.399Z,19.00
2023-03-17T17:47:12.127Z,19.20
2023-03-17T17:50:34.735Z,19.20
2023-03-17T17:53:38.257Z,19.20
2023-03-17T17:56:46.702Z,19.10
2023-03-17T17:59:48.816Z,19.10
2023-03-17T18:02:51.256Z,19.10
2023-03-17T18:05:54.488Z,18.90
2023-03-17T18:08:58.945Z,18.90
2023-03-17T18:12:01.010Z,18.90
2023-03-17T18:15:05.424Z,19.00
2023-03-17T18:18:07.959Z,18.90
2023-03-17T18:21:14.366Z,19.00
2023-03-17T18:24:17.490Z,18.80
2023-03-17T18:27:19.921Z,18.80
2023-03-17T18:30:29.199Z,18.90
2023-03-17T18:33:32.622Z,19.10
2023-03-17T18:36:37.405Z,19.00
2023-03-17T18:39:41.631Z,18.90
2023-03-17T18:42:43.815Z,19.10
2023-03-17T18:45:46.173Z,18.80
2023-03-17T18:48:48.382Z,18.70
2023-03-17T18:51:51.083Z,18.70
2023-03-17T18:54:53.098Z,18.70
2023-03-17T18:57:55.814Z,18.80
2023-03-17T19:01:05.724Z,18.50
2023-03-17T19:04:08.882Z,18.80
2023-03-17T19:07:10.904Z,18.70
2023-03-17T19:10:14.238Z,18.60
2023-03-17T19:13:16.917Z,18.70
2023-03-17T19:16:19.927Z,18.70
2023-03-17T19:19:22.209Z,18.90
2023-03-17T19:22:24.701Z,18.80
2023-03-17T19:25:27.214Z,18.80
2023-03-17T19:28:29.489Z,18.60
2023-03-17T19:31:31.589Z,18.80
2023-03-17T19:34:34.171Z,18.90
2023-03-17T19:37:38.036Z,19.00
2023-03-17T19:40:40.666Z,18.70
2023-03-17T19:43:43.314Z,18.80
2023-03-17T19:46:45.643Z,18.70
2023-03-17T19:49:48.238Z,18.90
2023-03-17T19:52:53.182Z,18.80
2023-03-17T19:55:57.013Z,18.90
2023-03-17T19:59:00.041Z,18.80
2023-03-17T20:02:02.267Z,19.00
2023-03-17T20:05:04.967Z,18.80
2023-03-17T20:08:07.896Z,19.00
2023-03-17T20:11:12.810Z,19.00
2023-03-17T20:14:14.884Z,19.00
2023-03-17T20:17:17.833Z,19.00
2023-03-17T20:20:19.992Z,18.90
2023-03-17T20:23:22.725Z,19.10
2023-03-17T20:26:25.380Z,19.10
2023-03-17T20:29:28.222Z,19.10
2023-03-17T20:32:30.348Z,19.20
2023-03-17T20:35:33.766Z,19.40
2023-03-17T20:38:38.871Z,19.20
2023-03-17T20:41:41.702Z,19.20
2023-03-17T20:44:43.681Z,19.20
2023-03-17T20:47:47.306Z,19.20
2023-03-17T20:50:50.000Z,19.30
2023-03-17T20:53:56.875Z,19.30
2023-03-17T20:56:59.258Z,19.20
2023-03-17T21:00:02.344Z,19.30
2023-03-17T21:03:04.705Z,19.30
2023-03-17T21:06:07.545Z,19.40
2023-03-17T21:09:10.739Z,19.40
2023-03-17T21:12:15.413Z,19.30
2023-03-17T21:15:18.358Z,19.40
2023-03-17T21:18:20.865Z,19.40
2023-03-17T21:21:23.534Z,19.50
2023-03-17T21:24:28.122Z,19.40
2023-03-17T21:27:30.833Z,19.70
2023-03-17T21:30:34.109Z,19.60
2023-03-17T21:33:36.657Z,19.80
2023-03-17T21:36:39.063Z,19.80
2023-03-17T21:39:45.775Z,19.80
2023-03-17T21:42:49.689Z,19.80
2023-03-17T21:45:51.838Z,19.90
2023-03-17T21:48:54.242Z,20.00
2023-03-17T21:51:56.443Z,20.00
2023-03-17T21:54:59.668Z,19.90
2023-03-17T21:58:02.418Z,20.10
2023-03-17T22:01:05.176Z,20.00
2023-03-17T22:04:07.722Z,19.80
2023-03-17T22:07:13.204Z,19.90
2023-03-17T22:10:15.742Z,19.90
2023-03-17T22:13:18.344Z,19.90
2023-03-17T22:16:21.883Z,20.00
2023-03-17T22:19:24.543Z,20.30
2023-03-17T22:22:26.624Z,20.10
2023-03-17T22:25:28.995Z,20.20
2023-03-17T22:28:31.122Z,20.10
2023-03-17T22:31:35.382Z,20.10
2023-03-17T22:34:37.728Z,20.20
2023-03-17T22:37:41.469Z,20.00
2023-03-17T22:40:43.476Z,20.00
2023-03-17T22:43:47.064Z,19.90
2023-03-17T22:46:49.104Z,20.20
2023-03-17T22:49:51.517Z,19.90
2023-03-17T22:52:53.558Z,20.00
2023-03-17T22:55:58.852Z,19.60
2023-03-17T22:59:01.916Z,19.90
2023-03-17T23:02:04.252Z,19.70
2023-03-17T23:05:07.045Z,19.80
2023-03-17T23:08:09.300Z,19.80
2023-03-17T23:11:16.104Z,19.90
2023-03-17T23:14:18.425Z,20.00
2023-03-17T23:17:20.748Z,19.90
2023-03-17T23:20:23.219Z,19.80
2023-03-17T23:23:25.258Z,19.80
2023-03-17T23:26:28.348Z,19.80
2023-03-17T23:29:30.422Z,19.70
2023-03-17T23:32:32.908Z,19.80
2023-03-17T23:35:35.820Z,19.90
2023-03-17T23:38:38.094Z,19.90
2023-03-17T23:41:40.241Z,19.80
2023-03-17T23:44:42.787Z,19.80
2023-03-17T23:47:46.679Z,19.90
2023-03-17T23:50:52.774Z,19.90
2023-03-17T23:53:55.446Z,20.00
2023-03-17T23:56:58.111Z,20.00
